createdAt,value
2018-04-22T00:00:24.443Z,95739
2018-04-22T00:00:56.464Z,95738
2018-04-22T00:01:28.503Z,95740
2018-04-22T00:02:00.518Z,95739
2018-04-22T00:02:32.546Z,95737
2018-04-22T00:03:05.341Z,95735
2018-04-22T00:03:38.120Z,95738
2018-04-22T00:04:10.138Z,95739
2018-04-22T00:04:42.166Z,95737
2018-04-22T00:05:14.202Z,95735
2018-04-22T00:05:46.207Z,95736
2018-04-22T00:06:18.242Z,95737
2018-04-22T00:06:50.274Z,95742
2018-04-22T00:07:22.329Z,95738
2018-04-22T00:07:54.358Z,95738
2018-04-22T00:08:26.381Z,95744
2018-04-22T00:08:58.417Z,95740
2018-04-22T00:09:30.446Z,95739
2018-04-22T00:10:02.463Z,95736
2018-04-22T00:10:34.494Z,95739
2018-04-22T00:11:06.514Z,95740
2018-04-22T00:11:39.302Z,95737
2018-04-22T00:12:11.329Z,95742
2018-04-22T00:12:44.119Z,95739
2018-04-22T00:13:16.162Z,95736
2018-04-22T00:13:48.198Z,95737
2018-04-22T00:14:20.228Z,95738
2018-04-22T00:14:52.270Z,95739
2018-04-22T00:15:24.295Z,95735
2018-04-22T00:15:56.324Z,95733
2018-04-22T00:16:28.346Z,95736
2018-04-22T00:17:00.372Z,95734
2018-04-22T00:17:32.410Z,95734
2018-04-22T00:18:04.433Z,95737
2018-04-22T00:18:36.474Z,95734
2018-04-22T00:19:08.495Z,95731
2018-04-22T00:19:40.525Z,95733
2018-04-22T00:20:12.552Z,95730
2018-04-22T00:20:44.573Z,95731
2018-04-22T00:21:17.379Z,95730
2018-04-22T00:21:49.399Z,95727
2018-04-22T00:22:21.420Z,95730
2018-04-22T00:22:53.434Z,95730
2018-04-22T00:23:25.483Z,95727
2018-04-22T00:23:57.506Z,95725
2018-04-22T00:24:29.538Z,95722
2018-04-22T00:25:02.334Z,95723
2018-04-22T00:25:34.358Z,95726
2018-04-22T00:26:07.157Z,95728
2018-04-22T00:26:39.217Z,95725
2018-04-22T00:27:11.239Z,95725
2018-04-22T00:27:44.028Z,95728
2018-04-22T00:28:16.071Z,95725
2018-04-22T00:28:48.099Z,95728
2018-04-22T00:29:20.137Z,95726
2018-04-22T00:29:52.159Z,95733
2018-04-22T00:30:24.180Z,95728
2018-04-22T00:30:56.190Z,95732
2018-04-22T00:31:28.239Z,95734
2018-04-22T00:32:00.270Z,95729
2018-04-22T00:32:32.287Z,95733
2018-04-22T00:33:04.310Z,95733
2018-04-22T00:33:37.119Z,95732
2018-04-22T00:34:09.136Z,95733
2018-04-22T00:34:41.940Z,95732
2018-04-22T00:35:13.972Z,95729
2018-04-22T00:35:45.985Z,95732
2018-04-22T00:36:18.041Z,95733
2018-04-22T00:36:50.060Z,95736
2018-04-22T00:37:22.103Z,95730
2018-04-22T00:37:54.139Z,95734
2018-04-22T00:38:26.185Z,95730
2018-04-22T00:38:58.456Z,95733
2018-04-22T00:39:30.499Z,95727
2018-04-22T00:40:02.528Z,95733
2018-04-22T00:40:35.309Z,95733
2018-04-22T00:41:07.334Z,95731
2018-04-22T00:41:40.135Z,95732
2018-04-22T00:42:12.149Z,95736
2018-04-22T00:42:44.190Z,95729
2018-04-22T00:43:16.219Z,95733
2018-04-22T00:43:48.238Z,95737
2018-04-22T00:44:20.255Z,95731
2018-04-22T00:44:53.041Z,95731
2018-04-22T00:45:25.101Z,95731
2018-04-22T00:45:57.141Z,95728
2018-04-22T00:46:29.923Z,95730
2018-04-22T00:47:01.947Z,95724
2018-04-22T00:47:34.763Z,95726
2018-04-22T00:48:06.790Z,95727
2018-04-22T00:48:39.560Z,95725
2018-04-22T00:49:11.602Z,95726
2018-04-22T00:49:44.435Z,95728
2018-04-22T00:50:16.433Z,95729
2018-04-22T00:50:48.486Z,95734
2018-04-22T00:51:21.265Z,95728
2018-04-22T00:51:53.310Z,95730
2018-04-22T00:52:25.340Z,95730
2018-04-22T00:52:58.133Z,95733
2018-04-22T00:53:30.190Z,95731
2018-04-22T00:54:02.207Z,95725
2018-04-22T00:54:35.016Z,95729
2018-04-22T00:55:07.041Z,95727
2018-04-22T00:55:39.819Z,95733
2018-04-22T00:56:11.848Z,95730
2018-04-22T00:56:44.641Z,95730
2018-04-22T00:57:16.722Z,95730
2018-04-22T00:57:48.762Z,95728
2018-04-22T00:58:20.786Z,95725
2018-04-22T00:58:52.803Z,95726
2018-04-22T00:59:25.132Z,95731
2018-04-22T00:59:57.166Z,95719
2018-04-22T01:00:29.221Z,95724
2018-04-22T01:01:01.245Z,95726
2018-04-22T01:01:34.043Z,95724
2018-04-22T01:02:06.064Z,95729
2018-04-22T01:02:38.843Z,95724
2018-04-22T01:03:10.919Z,95719
2018-04-22T01:03:42.938Z,95719
2018-04-22T01:04:14.967Z,95720
2018-04-22T01:04:46.988Z,95721
2018-04-22T01:05:19.019Z,95720
2018-04-22T01:05:51.058Z,95721
2018-04-22T01:06:23.078Z,95716
2018-04-22T01:06:55.931Z,95715
2018-04-22T01:07:27.928Z,95717
2018-04-22T01:07:59.962Z,95713
2018-04-22T01:08:31.992Z,95718
2018-04-22T01:09:04.040Z,95717
2018-04-22T01:09:36.116Z,95714
2018-04-22T01:10:08.902Z,95716
2018-04-22T01:10:40.927Z,95713
2018-04-22T01:11:13.722Z,95713
2018-04-22T01:11:45.835Z,95714
2018-04-22T01:12:17.823Z,95717
2018-04-22T01:12:49.859Z,95711
2018-04-22T01:13:22.631Z,95710
2018-04-22T01:13:54.670Z,95713
2018-04-22T01:14:27.454Z,95713
2018-04-22T01:14:59.486Z,95711
2018-04-22T01:15:32.276Z,95711
2018-04-22T01:16:04.291Z,95710
2018-04-22T01:16:36.328Z,95709
2018-04-22T01:17:08.344Z,95709
2018-04-22T01:17:40.363Z,95710
2018-04-22T01:18:13.158Z,95710
2018-04-22T01:18:45.211Z,95714
2018-04-22T01:19:17.266Z,95710
2018-04-22T01:19:49.318Z,95713
2018-04-22T01:20:21.368Z,95710
2018-04-22T01:20:53.387Z,95708
2018-04-22T01:21:26.188Z,95712
2018-04-22T01:21:58.211Z,95705
2018-04-22T01:22:31.014Z,95708
2018-04-22T01:23:03.164Z,95707
2018-04-22T01:23:35.194Z,95705
2018-04-22T01:24:07.983Z,95708
2018-04-22T01:24:40.008Z,95711
2018-04-22T01:25:12.821Z,95709
2018-04-22T01:25:44.826Z,95712
2018-04-22T01:26:17.619Z,95701
2018-04-22T01:26:50.418Z,95709
2018-04-22T01:27:22.442Z,95710
2018-04-22T01:27:54.474Z,95710
2018-04-22T01:28:27.265Z,95711
2018-04-22T01:28:59.282Z,95711
2018-04-22T01:29:32.255Z,95709
2018-04-22T01:30:04.446Z,95711
2018-04-22T01:30:37.214Z,95711
2018-04-22T01:31:09.233Z,95712
2018-04-22T01:31:42.041Z,95713
2018-04-22T01:32:14.054Z,95707
2018-04-22T01:32:46.854Z,95705
2018-04-22T01:33:18.880Z,95709
2018-04-22T01:33:51.676Z,95707
2018-04-22T01:34:23.691Z,95714
2018-04-22T01:34:56.500Z,95711
2018-04-22T01:35:28.511Z,95708
2018-04-22T01:36:00.528Z,95711
2018-04-22T01:36:32.589Z,95705
2018-04-22T01:37:04.615Z,95708
2018-04-22T01:37:36.619Z,95708
2018-04-22T01:38:08.634Z,95700
2018-04-22T01:38:40.699Z,95708
2018-04-22T01:39:12.714Z,95706
2018-04-22T01:39:44.725Z,95706
2018-04-22T01:40:16.759Z,95702
2018-04-22T01:40:48.786Z,95703
2018-04-22T01:41:20.821Z,95706
2018-04-22T01:41:52.854Z,95706
2018-04-22T01:42:25.640Z,95701
2018-04-22T01:42:57.661Z,95701
2018-04-22T01:43:29.689Z,95705
2018-04-22T01:44:01.735Z,95705
2018-04-22T01:44:33.748Z,95703
2018-04-22T01:45:05.823Z,95705
2018-04-22T01:45:37.860Z,95707
2018-04-22T01:46:09.879Z,95709
2018-04-22T01:46:41.919Z,95704
2018-04-22T01:47:14.714Z,95705
2018-04-22T01:47:46.734Z,95700
2018-04-22T01:48:18.759Z,95700
2018-04-22T01:48:50.808Z,95705
2018-04-22T01:49:22.823Z,95704
2018-04-22T01:49:54.850Z,95703
2018-04-22T01:50:26.882Z,95699
2018-04-22T01:50:59.702Z,95697
2018-04-22T01:51:31.728Z,95697
2018-04-22T01:52:03.751Z,95698
2018-04-22T01:52:36.567Z,95696
2018-04-22T01:53:08.614Z,95694
2018-04-22T01:53:40.653Z,95692
2018-04-22T01:54:12.674Z,95694
2018-04-22T01:54:45.461Z,95695
2018-04-22T01:55:17.484Z,95691
2018-04-22T01:55:49.522Z,95689
2018-04-22T01:56:21.552Z,95696
2018-04-22T01:56:53.591Z,95685
2018-04-22T01:57:25.634Z,95694
2018-04-22T01:57:57.641Z,95689
2018-04-22T01:58:29.655Z,95693
2018-04-22T01:59:01.691Z,95690
2018-04-22T01:59:33.718Z,95686
2018-04-22T02:00:05.734Z,95691
2018-04-22T02:00:37.755Z,95690
2018-04-22T02:01:09.769Z,95690
2018-04-22T02:01:41.866Z,95694
2018-04-22T02:02:13.887Z,95688
2018-04-22T02:02:45.955Z,95693
2018-04-22T02:03:17.977Z,95692
2018-04-22T02:03:49.995Z,95689
2018-04-22T02:04:22.050Z,95694
2018-04-22T02:04:54.072Z,95695
2018-04-22T02:05:26.095Z,95692
2018-04-22T02:05:58.111Z,95691
2018-04-22T02:06:30.911Z,95687
2018-04-22T02:07:02.957Z,95694
2018-04-22T02:07:35.773Z,95689
2018-04-22T02:08:07.813Z,95692
2018-04-22T02:08:39.829Z,95690
2018-04-22T02:09:11.863Z,95688
2018-04-22T02:09:44.654Z,95695
2018-04-22T02:10:16.675Z,95687
2018-04-22T02:10:49.472Z,95687
2018-04-22T02:11:21.490Z,95688
2018-04-22T02:11:54.295Z,95690
2018-04-22T02:12:26.302Z,95692
2018-04-22T02:12:58.335Z,95691
2018-04-22T02:13:30.347Z,95687
2018-04-22T02:14:02.361Z,95687
2018-04-22T02:14:35.148Z,95696
2018-04-22T02:15:07.964Z,95690
2018-04-22T02:15:39.981Z,95689
2018-04-22T02:16:11.996Z,95691
2018-04-22T02:16:44.063Z,95690
2018-04-22T02:17:16.855Z,95689
2018-04-22T02:17:48.884Z,95685
2018-04-22T02:18:21.672Z,95690
2018-04-22T02:18:53.707Z,95689
2018-04-22T02:19:26.491Z,95687
2018-04-22T02:19:58.515Z,95687
2018-04-22T02:20:31.312Z,95682
2018-04-22T02:21:03.335Z,95686
2018-04-22T02:21:36.115Z,95691
2018-04-22T02:22:08.906Z,95685
2018-04-22T02:22:40.919Z,95683
2018-04-22T02:23:13.708Z,95687
2018-04-22T02:23:45.768Z,95686
2018-04-22T02:24:17.812Z,95687
2018-04-22T02:24:50.601Z,95684
2018-04-22T02:25:22.615Z,95683
2018-04-22T02:25:55.402Z,95686
2018-04-22T02:26:27.475Z,95690
2018-04-22T02:26:59.517Z,95683
2018-04-22T02:27:31.546Z,95684
2018-04-22T02:28:04.324Z,95682
2018-04-22T02:28:36.374Z,95681
2018-04-22T02:29:08.411Z,95682
2018-04-22T02:29:41.221Z,95685
2018-04-22T02:30:13.274Z,95689
2018-04-22T02:30:45.335Z,95688
2018-04-22T02:31:17.362Z,95686
2018-04-22T02:31:49.393Z,95686
2018-04-22T02:32:22.215Z,95686
2018-04-22T02:32:54.230Z,95688
2018-04-22T02:33:26.255Z,95686
2018-04-22T02:33:59.050Z,95688
2018-04-22T02:34:31.074Z,95683
2018-04-22T02:35:03.107Z,95686
2018-04-22T02:35:35.137Z,95682
2018-04-22T02:36:07.170Z,95679
2018-04-22T02:36:39.226Z,95685
2018-04-22T02:37:11.281Z,95679
2018-04-22T02:37:43.319Z,95680
2018-04-22T02:38:15.343Z,95679
2018-04-22T02:38:48.141Z,95678
2018-04-22T02:39:20.151Z,95686
2018-04-22T02:39:52.960Z,95684
2018-04-22T02:40:24.995Z,95680
2018-04-22T02:40:57.016Z,95682
2018-04-22T02:41:29.073Z,95679
2018-04-22T02:42:01.083Z,95679
2018-04-22T02:42:33.108Z,95680
2018-04-22T02:43:05.910Z,95683
2018-04-22T02:43:37.972Z,95686
2018-04-22T02:44:09.978Z,95680
2018-04-22T02:44:42.007Z,95684
2018-04-22T02:45:14.125Z,95674
2018-04-22T02:45:46.151Z,95675
2018-04-22T02:46:18.170Z,95679
2018-04-22T02:46:51.010Z,95680
2018-04-22T02:47:23.036Z,95684
2018-04-22T02:47:55.067Z,95680
2018-04-22T02:48:27.091Z,95678
2018-04-22T02:48:59.883Z,95681
2018-04-22T02:49:31.906Z,95685
2018-04-22T02:50:04.704Z,95680
2018-04-22T02:50:36.740Z,95679
2018-04-22T02:51:08.756Z,95681
2018-04-22T02:51:40.789Z,95679
2018-04-22T02:52:12.808Z,95675
2018-04-22T02:52:44.876Z,95676
2018-04-22T02:53:16.898Z,95680
2018-04-22T02:53:48.920Z,95677
2018-04-22T02:54:20.958Z,95675
2018-04-22T02:54:53.014Z,95675
2018-04-22T02:55:25.020Z,95678
2018-04-22T02:55:57.070Z,95673
2018-04-22T02:56:29.120Z,95676
2018-04-22T02:57:01.170Z,95667
2018-04-22T02:57:33.186Z,95672
2018-04-22T02:58:05.211Z,95672
2018-04-22T02:58:37.278Z,95674
2018-04-22T02:59:09.295Z,95664
2018-04-22T02:59:42.089Z,95671
2018-04-22T03:00:14.112Z,95672
2018-04-22T03:00:46.923Z,95669
2018-04-22T03:01:18.989Z,95669
2018-04-22T03:01:50.983Z,95669
2018-04-22T03:02:23.781Z,95673
2018-04-22T03:02:55.812Z,95671
2018-04-22T03:03:28.601Z,95668
2018-04-22T03:04:00.636Z,95672
2018-04-22T03:04:33.416Z,95673
2018-04-22T03:05:05.455Z,95671
2018-04-22T03:05:38.254Z,95672
2018-04-22T03:06:10.275Z,95669
2018-04-22T03:06:43.108Z,95675
2018-04-22T03:07:15.141Z,95668
2018-04-22T03:07:47.197Z,95670
2018-04-22T03:08:19.222Z,95667
2018-04-22T03:08:51.253Z,95670
2018-04-22T03:09:24.051Z,95666
2018-04-22T03:09:56.073Z,95668
2018-04-22T03:10:28.872Z,95669
2018-04-22T03:11:00.918Z,95666
2018-04-22T03:11:32.965Z,95668
2018-04-22T03:12:04.996Z,95666
2018-04-22T03:12:37.043Z,95667
2018-04-22T03:13:09.833Z,95667
2018-04-22T03:13:41.854Z,95669
2018-04-22T03:14:14.643Z,95671
2018-04-22T03:14:46.675Z,95671
2018-04-22T03:15:19.488Z,95668
2018-04-22T03:15:51.521Z,95668
2018-04-22T03:16:23.575Z,95663
2018-04-22T03:16:56.344Z,95665
2018-04-22T03:17:28.375Z,95663
2018-04-22T03:18:01.183Z,95659
2018-04-22T03:18:33.214Z,95666
2018-04-22T03:19:05.234Z,95664
2018-04-22T03:19:38.043Z,95664
2018-04-22T03:20:10.090Z,95664
2018-04-22T03:20:42.146Z,95659
2018-04-22T03:21:14.170Z,95666
2018-04-22T03:21:46.975Z,95669
2018-04-22T03:22:19.083Z,95664
2018-04-22T03:22:51.072Z,95665
2018-04-22T03:23:23.139Z,95664
2018-04-22T03:23:55.162Z,95666
2018-04-22T03:24:27.182Z,95668
2018-04-22T03:24:59.981Z,95669
2018-04-22T03:25:32.025Z,95670
2018-04-22T03:26:04.809Z,95664
2018-04-22T03:26:36.840Z,95667
2018-04-22T03:27:08.909Z,95664
2018-04-22T03:27:40.934Z,95666
2018-04-22T03:28:13.751Z,95670
2018-04-22T03:28:45.776Z,95665
2018-04-22T03:29:17.803Z,95663
2018-04-22T03:29:50.596Z,95664
2018-04-22T03:30:22.635Z,95666
2018-04-22T03:30:55.440Z,95666
2018-04-22T03:31:27.469Z,95664
2018-04-22T03:31:59.499Z,95663
2018-04-22T03:32:32.311Z,95663
2018-04-22T03:33:04.396Z,95667
2018-04-22T03:33:36.418Z,95664
2018-04-22T03:34:08.457Z,95659
2018-04-22T03:34:40.480Z,95664
2018-04-22T03:35:12.605Z,95666
2018-04-22T03:35:44.599Z,95666
2018-04-22T03:36:16.640Z,95668
2018-04-22T03:36:49.438Z,95666
2018-04-22T03:37:21.492Z,95660
2018-04-22T03:37:53.522Z,95660
2018-04-22T03:38:25.548Z,95660
2018-04-22T03:38:58.355Z,95663
2018-04-22T03:39:30.374Z,95663
2018-04-22T03:40:03.223Z,95661
2018-04-22T03:40:35.253Z,95659
2018-04-22T03:41:07.280Z,95663
2018-04-22T03:41:39.320Z,95663
2018-04-22T03:42:11.340Z,95665
2018-04-22T03:42:44.129Z,95665
2018-04-22T03:43:16.160Z,95662
2018-04-22T03:43:48.959Z,95663
2018-04-22T03:44:20.975Z,95664
2018-04-22T03:44:53.790Z,95663
2018-04-22T03:45:25.815Z,95661
2018-04-22T03:45:58.613Z,95665
2018-04-22T03:46:30.667Z,95664
2018-04-22T03:47:02.694Z,95664
2018-04-22T03:47:34.743Z,95666
2018-04-22T03:48:07.560Z,95662
2018-04-22T03:48:39.817Z,95663
2018-04-22T03:49:11.844Z,95659
2018-04-22T03:49:43.868Z,95661
2018-04-22T03:50:15.905Z,95662
2018-04-22T03:50:48.698Z,95664
2018-04-22T03:51:20.751Z,95660
2018-04-22T03:51:53.524Z,95660
2018-04-22T03:52:25.554Z,95659
2018-04-22T03:52:57.604Z,95662
2018-04-22T03:53:30.398Z,95658
2018-04-22T03:54:02.441Z,95661
2018-04-22T03:54:34.468Z,95660
2018-04-22T03:55:07.293Z,95659
2018-04-22T03:55:39.316Z,95659
2018-04-22T03:56:11.353Z,95662
2018-04-22T03:56:43.392Z,95663
2018-04-22T03:57:16.176Z,95661
2018-04-22T03:57:48.241Z,95661
2018-04-22T03:58:20.264Z,95659
2018-04-22T03:58:53.086Z,95658
2018-04-22T03:59:25.120Z,95658
2018-04-22T03:59:57.162Z,95656
2018-04-22T04:00:29.195Z,95654
2018-04-22T04:01:38.160Z,95650
2018-04-22T04:02:10.191Z,95650
2018-04-22T04:02:42.219Z,95654
2018-04-22T04:03:14.264Z,95650
2018-04-22T04:03:47.057Z,95651
2018-04-22T04:04:19.078Z,95652
2018-04-22T04:04:51.876Z,95652
2018-04-22T04:05:23.933Z,95649
2018-04-22T04:05:56.700Z,95647
2018-04-22T04:06:28.735Z,95652
2018-04-22T04:07:00.768Z,95654
2018-04-22T04:07:33.568Z,95651
2018-04-22T04:08:05.589Z,95654
2018-04-22T04:08:38.374Z,95649
2018-04-22T04:09:10.411Z,95649
2018-04-22T04:09:43.223Z,95649
2018-04-22T04:10:15.242Z,95650
2018-04-22T04:10:47.283Z,95652
2018-04-22T04:11:20.062Z,95650
2018-04-22T04:11:52.095Z,95654
2018-04-22T04:12:24.121Z,95654
2018-04-22T04:12:56.186Z,95657
2018-04-22T04:13:28.187Z,95655
2018-04-22T04:14:00.265Z,95655
2018-04-22T04:14:32.294Z,95655
2018-04-22T04:15:04.358Z,95652
2018-04-22T04:15:36.387Z,95659
2018-04-22T04:16:08.424Z,95656
2018-04-22T04:16:40.445Z,95654
2018-04-22T04:17:12.468Z,95657
2018-04-22T04:17:44.532Z,95657
2018-04-22T04:18:16.549Z,95658
2018-04-22T04:18:48.565Z,95655
2018-04-22T04:19:21.398Z,95655
2018-04-22T04:19:53.431Z,95658
2018-04-22T04:20:25.460Z,95657
2018-04-22T04:20:57.503Z,95653
2018-04-22T04:21:29.530Z,95652
2018-04-22T04:22:01.575Z,95656
2018-04-22T04:22:33.575Z,95652
2018-04-22T04:23:05.605Z,95655
2018-04-22T04:23:37.630Z,95658
2018-04-22T04:24:09.703Z,95661
2018-04-22T04:24:41.744Z,95655
2018-04-22T04:25:13.747Z,95653
2018-04-22T04:25:45.777Z,95654
2018-04-22T04:26:17.826Z,95656
2018-04-22T04:26:49.851Z,95658
2018-04-22T04:27:22.638Z,95655
2018-04-22T04:27:54.651Z,95657
2018-04-22T04:28:26.676Z,95657
2018-04-22T04:28:58.707Z,95654
2018-04-22T04:29:30.762Z,95657
2018-04-22T04:30:02.790Z,95657
2018-04-22T04:30:34.820Z,95659
2018-04-22T04:31:07.612Z,95654
2018-04-22T04:31:39.656Z,95660
2018-04-22T04:32:12.427Z,95660
2018-04-22T04:32:44.467Z,95650
2018-04-22T04:33:17.261Z,95664
2018-04-22T04:33:49.279Z,95656
2018-04-22T04:34:22.076Z,95658
2018-04-22T04:34:54.093Z,95657
2018-04-22T04:35:26.125Z,95657
2018-04-22T04:35:58.157Z,95663
2018-04-22T04:36:30.169Z,95657
2018-04-22T04:37:02.958Z,95657
2018-04-22T04:37:34.999Z,95656
2018-04-22T04:38:07.111Z,95661
2018-04-22T04:38:39.096Z,95660
2018-04-22T04:39:11.124Z,95663
2018-04-22T04:39:43.170Z,95663
2018-04-22T04:40:15.191Z,95662
2018-04-22T04:40:47.204Z,95662
2018-04-22T04:41:19.234Z,95666
2018-04-22T04:41:52.041Z,95665
2018-04-22T04:42:24.059Z,95663
2018-04-22T04:42:56.075Z,95669
2018-04-22T04:43:28.219Z,95667
2018-04-22T04:44:00.982Z,95662
2018-04-22T04:44:33.003Z,95666
2018-04-22T04:45:05.027Z,95666
2018-04-22T04:45:37.817Z,95667
2018-04-22T04:46:09.856Z,95663
2018-04-22T04:46:42.631Z,95664
2018-04-22T04:47:14.656Z,95666
2018-04-22T04:47:46.681Z,95669
2018-04-22T04:48:18.706Z,95670
2018-04-22T04:48:50.731Z,95669
2018-04-22T04:49:23.499Z,95665
2018-04-22T04:49:56.289Z,95667
2018-04-22T04:50:28.343Z,95670
2018-04-22T04:51:00.387Z,95674
2018-04-22T04:51:32.411Z,95673
2018-04-22T04:52:05.215Z,95669
2018-04-22T04:52:37.236Z,95669
2018-04-22T04:53:09.261Z,95682
2018-04-22T04:53:41.301Z,95674
2018-04-22T04:54:13.326Z,95673
2018-04-22T04:54:45.347Z,95678
2018-04-22T04:55:18.146Z,95681
2018-04-22T04:55:50.175Z,95680
2018-04-22T04:56:22.205Z,95680
2018-04-22T04:56:54.997Z,95681
2018-04-22T04:57:27.078Z,95683
2018-04-22T04:57:59.092Z,95685
2018-04-22T04:58:31.889Z,95678
2018-04-22T04:59:03.902Z,95681
2018-04-22T04:59:36.696Z,95682
2018-04-22T05:00:08.720Z,95681
2018-04-22T05:00:41.515Z,95684
2018-04-22T05:01:13.571Z,95683
2018-04-22T05:01:45.578Z,95680
2018-04-22T05:02:17.624Z,95684
2018-04-22T05:02:49.640Z,95683
2018-04-22T05:03:21.691Z,95686
2018-04-22T05:03:53.720Z,95684
2018-04-22T05:04:25.764Z,95684
2018-04-22T05:04:57.828Z,95679
2018-04-22T05:05:29.859Z,95681
2018-04-22T05:06:02.705Z,95683
2018-04-22T05:06:34.725Z,95682
2018-04-22T05:07:06.792Z,95679
2018-04-22T05:07:38.810Z,95683
2018-04-22T05:08:10.847Z,95682
2018-04-22T05:08:42.891Z,95682
2018-04-22T05:09:15.676Z,95681
2018-04-22T05:09:47.697Z,95682
2018-04-22T05:10:20.529Z,95683
2018-04-22T05:10:52.564Z,95683
2018-04-22T05:11:24.582Z,95686
2018-04-22T05:11:56.604Z,95688
2018-04-22T05:12:28.630Z,95687
2018-04-22T05:13:00.663Z,95688
2018-04-22T05:13:32.699Z,95690
2018-04-22T05:14:04.722Z,95690
2018-04-22T05:14:37.531Z,95685
2018-04-22T05:15:09.562Z,95688
2018-04-22T05:15:42.363Z,95690
2018-04-22T05:16:14.405Z,95688
2018-04-22T05:16:46.433Z,95690
2018-04-22T05:17:18.459Z,95688
2018-04-22T05:17:50.490Z,95685
2018-04-22T05:18:22.505Z,95689
2018-04-22T05:18:54.536Z,95689
2018-04-22T05:19:26.558Z,95692
2018-04-22T05:19:58.597Z,95691
2018-04-22T05:20:30.626Z,95694
2018-04-22T05:21:02.709Z,95691
2018-04-22T05:21:34.763Z,95691
2018-04-22T05:22:06.777Z,95692
2018-04-22T05:22:38.833Z,95690
2018-04-22T05:23:10.858Z,95694
2018-04-22T05:23:42.922Z,95694
2018-04-22T05:24:14.978Z,95690
2018-04-22T05:24:47.741Z,95690
2018-04-22T05:25:19.773Z,95691
2018-04-22T05:25:52.554Z,95691
2018-04-22T05:26:24.605Z,95693
2018-04-22T05:26:56.709Z,95695
2018-04-22T05:27:28.708Z,95691
2018-04-22T05:28:00.727Z,95691
2018-04-22T05:28:33.512Z,95695
2018-04-22T05:29:05.546Z,95693
2018-04-22T05:29:38.328Z,95695
2018-04-22T05:30:10.369Z,95692
2018-04-22T05:30:43.188Z,95693
2018-04-22T05:31:15.229Z,95692
2018-04-22T05:31:47.250Z,95693
2018-04-22T05:32:20.040Z,95696
2018-04-22T05:32:52.075Z,95695
2018-04-22T05:33:24.119Z,95696
2018-04-22T05:33:56.935Z,95698
2018-04-22T05:34:28.966Z,95697
2018-04-22T05:35:00.985Z,95700
2018-04-22T05:35:33.829Z,95698
2018-04-22T05:36:05.846Z,95698
2018-04-22T05:36:37.889Z,95700
2018-04-22T05:37:09.926Z,95694
2018-04-22T05:37:41.970Z,95698
2018-04-22T05:38:14.008Z,95697
2018-04-22T05:38:46.825Z,95698
2018-04-22T05:39:18.879Z,95699
2018-04-22T05:39:50.914Z,95703
2018-04-22T05:40:22.938Z,95705
2018-04-22T05:40:55.751Z,95699
2018-04-22T05:41:27.785Z,95700
2018-04-22T05:41:59.877Z,95699
2018-04-22T05:42:31.925Z,95703
2018-04-22T05:43:03.956Z,95703
2018-04-22T05:43:35.978Z,95698
2018-04-22T05:44:08.043Z,95703
2018-04-22T05:44:40.067Z,95704
2018-04-22T05:45:12.863Z,95704
2018-04-22T05:45:44.894Z,95703
2018-04-22T05:46:16.919Z,95705
2018-04-22T05:46:48.976Z,95700
2018-04-22T05:47:21.020Z,95702
2018-04-22T05:47:53.056Z,95702
2018-04-22T05:48:25.127Z,95701
2018-04-22T05:48:57.169Z,95702
2018-04-22T05:49:29.192Z,95699
2018-04-22T05:50:01.252Z,95694
2018-04-22T05:50:33.301Z,95694
2018-04-22T05:51:05.326Z,95700
2018-04-22T05:51:37.372Z,95698
2018-04-22T05:52:09.404Z,95692
2018-04-22T05:52:42.187Z,95694
2018-04-22T05:53:14.233Z,95695
2018-04-22T05:53:47.007Z,95694
2018-04-22T05:54:19.081Z,95698
2018-04-22T05:54:51.123Z,95700
2018-04-22T05:55:23.150Z,95694
2018-04-22T05:55:56.000Z,95694
2018-04-22T05:56:28.002Z,95692
2018-04-22T05:57:00.036Z,95693
2018-04-22T05:57:32.836Z,95699
2018-04-22T05:58:04.873Z,95693
2018-04-22T05:58:36.902Z,95695
2018-04-22T05:59:08.946Z,95701
2018-04-22T05:59:41.738Z,95697
2018-04-22T06:00:13.760Z,95699
2018-04-22T06:00:46.547Z,95701
2018-04-22T06:01:18.573Z,95698
2018-04-22T06:01:51.380Z,95699
2018-04-22T06:02:23.411Z,95697
2018-04-22T06:02:56.207Z,95699
2018-04-22T06:03:28.248Z,95698
2018-04-22T06:04:00.285Z,95701
2018-04-22T06:04:32.327Z,95700
2018-04-22T06:05:05.108Z,95698
2018-04-22T06:05:37.143Z,95701
2018-04-22T06:06:09.940Z,95700
2018-04-22T06:06:41.954Z,95701
2018-04-22T06:07:14.765Z,95703
2018-04-22T06:07:46.778Z,95701
2018-04-22T06:08:19.585Z,95696
2018-04-22T06:08:51.624Z,95697
2018-04-22T06:09:24.397Z,95698
2018-04-22T06:09:56.451Z,95692
2018-04-22T06:10:28.470Z,95700
2018-04-22T06:11:00.501Z,95696
2018-04-22T06:11:32.535Z,95694
2018-04-22T06:12:04.559Z,95698
2018-04-22T06:12:36.591Z,95696
2018-04-22T06:13:08.621Z,95700
2018-04-22T06:13:40.635Z,95698
2018-04-22T06:14:12.653Z,95699
2018-04-22T06:14:44.683Z,95701
2018-04-22T06:15:17.481Z,95695
2018-04-22T06:15:49.539Z,95698
2018-04-22T06:16:21.559Z,95698
2018-04-22T06:16:53.626Z,95692
2018-04-22T06:17:25.634Z,95698
2018-04-22T06:17:57.669Z,95691
2018-04-22T06:18:29.700Z,95699
2018-04-22T06:19:01.753Z,95699
2018-04-22T06:19:33.788Z,95697
2018-04-22T06:20:05.807Z,95696
2018-04-22T06:20:38.607Z,95699
2018-04-22T06:21:10.633Z,95702
2018-04-22T06:21:43.455Z,95695
2018-04-22T06:22:15.480Z,95699
2018-04-22T06:22:47.536Z,95699
2018-04-22T06:23:20.305Z,95699
2018-04-22T06:23:52.318Z,95699
2018-04-22T06:24:25.138Z,95703
2018-04-22T06:24:57.166Z,95704
2018-04-22T06:25:29.211Z,95700
2018-04-22T06:26:02.015Z,95702
2018-04-22T06:26:34.030Z,95702
2018-04-22T06:27:06.065Z,95699
2018-04-22T06:27:38.852Z,95698
2018-04-22T06:28:10.883Z,95702
2018-04-22T06:28:43.723Z,95700
2018-04-22T06:29:15.763Z,95695
2018-04-22T06:29:47.800Z,95697
2018-04-22T06:30:19.842Z,95698
2018-04-22T06:30:51.896Z,95700
2018-04-22T06:31:23.936Z,95697
2018-04-22T06:31:55.977Z,95694
2018-04-22T06:32:28.771Z,95696
2018-04-22T06:33:00.821Z,95698
2018-04-22T06:33:32.883Z,95699
2018-04-22T06:34:05.635Z,95697
2018-04-22T06:34:37.695Z,95697
2018-04-22T06:35:09.717Z,95700
2018-04-22T06:35:42.507Z,95698
2018-04-22T06:36:14.535Z,95698
2018-04-22T06:36:47.322Z,95700
2018-04-22T06:37:19.370Z,95696
2018-04-22T06:37:51.408Z,95696
2018-04-22T06:38:24.196Z,95697
2018-04-22T06:38:56.239Z,95696
2018-04-22T06:39:29.022Z,95699
2018-04-22T06:40:01.046Z,95696
2018-04-22T06:40:33.867Z,95698
2018-04-22T06:41:05.867Z,95696
2018-04-22T06:41:38.658Z,95693
2018-04-22T06:42:10.683Z,95701
2018-04-22T06:42:43.515Z,95697
2018-04-22T06:43:15.546Z,95698
2018-04-22T06:43:47.581Z,95693
2018-04-22T06:44:19.610Z,95697
2018-04-22T06:44:52.400Z,95699
2018-04-22T06:45:24.425Z,95698
2018-04-22T06:45:57.210Z,95695
2018-04-22T06:46:29.285Z,95695
2018-04-22T06:47:01.357Z,95697
2018-04-22T06:47:33.343Z,95698
2018-04-22T06:48:06.140Z,95696
2018-04-22T06:48:38.160Z,95698
2018-04-22T06:49:10.963Z,95695
2018-04-22T06:49:42.986Z,95698
2018-04-22T06:50:15.777Z,95693
2018-04-22T06:50:47.808Z,95698
2018-04-22T06:51:20.600Z,95699
2018-04-22T06:51:52.643Z,95701
2018-04-22T06:52:24.683Z,95696
2018-04-22T06:52:57.475Z,95697
2018-04-22T06:53:29.534Z,95699
2018-04-22T06:54:02.304Z,95703
2018-04-22T06:54:34.342Z,95696
2018-04-22T06:55:06.367Z,95699
2018-04-22T06:55:39.170Z,95699